• Join FlightAware (Why Join?)
  • Login
  • US Flag 
01:45PM EST


 

Airport Tracker/Info


-or-


 

Live Flight TrackerFlight Track Log ✈ WJA245 ✈ 09-May-2013 ✈ CYVR - CYYC

Flight Track Log - Related Links

Times and Time Zones

All times are in EDT time to prevent confusion due to time zone crossing. See the WJA245 flight status page for this flight to view local times or setup timezone preferences in your user account.

Time Position Orientation Groundspeed Altitude Reporting Facility
EDT Latitude Longitude Course Direction KTS MPH feet Rate Location/Type
11:00PM 49.0667 -121.7833 90° East 460 529 31,900  Level Vancouver Center
11:01PM 49.0667 -121.5500 90° East 470 541 33,900 2,000 Climbing Vancouver Center
11:02PM 49.0833 -121.3833 81° East 470 541 35,900 1,750 Climbing Vancouver Center
11:03PM 49.1000 -121.2000 82° East 460 529 37,400 1,450 Climbing Vancouver Center
11:04PM 49.1667 -121.0167 61° Northeast 460 529 38,800 1,450 Climbing Vancouver Center
11:05PM 49.2333 -120.8333 61° Northeast 460 529 40,300 1,100 Climbing Vancouver Center
11:06PM 49.2833 -120.6500 67° East 450 518 41,000 350 Climbing Vancouver Center
11:07PM 49.3167 -120.5000 71° East 450 518 41,000  Level Vancouver Center
11:08PM 49.3833 -120.3167 61° Northeast 450 518 41,000  Level Vancouver Center
11:09PM 49.4333 -120.1500 65° Northeast 450 518 41,000  Level Vancouver Center
11:10PM 49.4833 -119.9667 67° East 450 518 41,000  Level Vancouver Center
11:11PM 49.5333 -119.7833 67° East 460 529 41,000  Level Vancouver Center
11:12PM 49.6000 -119.6000 61° Northeast 450 518 41,000  Level Vancouver Center
11:13PM 49.6333 -119.4333 73° East 450 518 41,000  Level Vancouver Center
11:14PM 49.7000 -119.2500 61° Northeast 450 518 41,000  Level Vancouver Center
11:15PM 49.7500 -119.1000 63° Northeast 450 518 41,000  Level Vancouver Center
11:16PM 49.8000 -118.9000 69° East 450 518 41,000  Level Vancouver Center
11:17PM 49.8500 -118.7167 67° East 440 506 41,000  Level Vancouver Center
11:18PM 49.9000 -118.5667 63° Northeast 440 506 41,000  Level Vancouver Center
11:19PM 49.9500 -118.3667 69° East 450 518 41,000  Level Vancouver Center
11:20PM 49.9833 -118.2167 71° East 450 518 41,000  Level Vancouver Center
11:21PM 50.0500 -118.0167 63° Northeast 440 506 41,000  Level Vancouver Center
11:22PM 50.0833 -117.8667 71° East 450 518 41,000  Level Vancouver Center
11:23PM 50.1500 -117.6667 62° Northeast 450 518 41,000  Level Vancouver Center
11:24PM 50.1833 -117.4833 74° East 450 518 41,000  Level Vancouver Center
11:25PM 50.2333 -117.3000 67° East 450 518 41,000  Level Vancouver Center
11:26PM 50.3000 -117.1333 58° Northeast 450 518 41,000 -150 Level Vancouver Center
11:27PM 50.3333 -116.9333 75° East 450 518 40,700 -1,300 Descending Vancouver Center
11:28PM 50.3833 -116.7500 67° East 450 518 38,400 -2,400 Descending Vancouver Center
11:29PM 50.4333 -116.5833 65° Northeast 440 506 35,900 -2,462 Descending Vancouver Center
11:29PM 50.4333 -116.6000 270° West 440 506 35,200 -2,077 Descending Edmonton Center
11:30PM 50.4667 -116.4167 74° East 420 483 33,200 -2,000 Descending Edmonton Center
11:31PM 50.5167 -116.2500 65° Northeast 410 472 31,200 -1,700 Descending Edmonton Center
11:32PM 50.5500 -116.0833 72° East 400 460 29,800 -1,150 Descending Edmonton Center
11:33PM 50.6167 -115.8833 62° Northeast 450 518 28,900 -1,050 Descending Edmonton Center
11:34PM 50.6500 -115.7167 72° East 460 529 27,700 -2,150 Descending Edmonton Center
11:35PM 50.7000 -115.5333 67° East 460 529 24,600 -3,100 Descending Edmonton Center
11:36PM 50.7500 -115.3333 68° East 440 506 21,500 -2,950 Descending Edmonton Center
11:37PM 50.7833 -115.1833 71° East 430 495 18,700 -2,824 Descending Edmonton Center
11:38PM 50.8167 -114.9833 75° East 420 483 16,700 -2,450 Descending Vancouver Center
11:39PM 50.8667 -114.8500 59° Northeast 380 437 13,800 -2,130 Descending Edmonton Center
11:40PM 50.9000 -114.7000 71° East 340 391 11,800 -1,750 Descending Edmonton Center
11:41PM 50.9000 -114.5667 90° East 290 334 10,300 -1,650 Descending Edmonton Center
11:42PM 50.9333 -114.4333 68° East 290 334 8,500 -1,150 Descending Edmonton Center
11:43PM 50.9667 -114.3333 62° Northeast 260 299 8,000 -650 Descending Edmonton Center
11:44PM 50.9667 -114.2333 90° East 230 265 7,200 -650 Descending Edmonton Center
11:45PM 50.9500 -114.1500 108° East 230 265 6,700 -750 Descending Edmonton Center
11:46PM 50.9667 -114.0667 72° East 180 207 5,700 -1,000 Descending Edmonton Center
11:47PM 51.0000 -114.0500 17° North 160 184 4,700 -800 Descending Edmonton Center
11:48PM 51.0333 -114.0500 360° North 130 150 4,100 -600 Descending Edmonton Center
11:49PM 51.0667 -114.0333 17° North 130 150 3,500 -600 Descending Edmonton Center